CW2099 Weather Reports


Display with metric or nautical units.
time (UTC)temp
F
wind
direction
speed
MPH
gust
MPH
rain 1hr
in
rain 24hr
in
rain mn
in
humidity
%
barometer
mb
20190420022402 38 210 0.0 0.0 0.00 0.00 0.00 50 1030.4
20190420021903 39 210 0.0 0.0 0.00 0.00 0.00 46 1030.4
20190420021403 39 210 0.0 0.0 0.00 0.00 0.00 46 1030.4
20190420020903 40 210 0.0 0.0 0.00 0.00 0.00 48 1030.4
20190420020403 40 210 0.0 0.0 0.00 0.00 0.00 45 1030.4
20190420015903 41 210 0.0 0.0 0.00 0.00 0.00 44 1030.4
20190420015403 41 210 0.0 0.0 0.00 0.00 0.00 43 1030.4
20190420014902 42 210 0.0 0.0 0.00 0.00 0.00 40 1030.4
20190420014403 42 210 0.0 0.0 0.00 0.00 0.00 39 1030.4
20190420013903 43 210 0.0 0.0 0.00 0.00 0.00 35 1030.4
20190420013403 43 210 0.0 0.0 0.00 0.00 0.00 35 1030.4
20190420012903 44 210 0.0 0.0 0.00 0.00 0.00 34 1030.4
20190420012402 45 210 0.0 0.0 0.00 0.00 0.00 32 1030.4
20190420011902 46 210 0.0 0.0 0.00 0.00 0.00 37 1030.4
20190420011403 46 210 0.0 0.0 0.00 0.00 0.00 32 1030.4
20190420010903 47 210 0.0 0.0 0.00 0.00 0.00 25 1030.4
20190420010403 47 210 0.0 0.0 0.00 0.00 0.00 25 1030.4
20190420005902 48 210 0.0 0.0 0.00 0.00 0.00 23 1030.4
20190420005403 48 210 0.0 0.0 0.00 0.00 0.00 23 1030.4
20190420004903 49 210 0.0 0.0 0.00 0.00 0.00 23 1030.4
20190420004403 49 210 0.0 0.0 0.00 0.00 0.00 22 1030.4
20190420003903 49 210 0.0 0.0 0.00 0.00 0.00 22 1030.4
20190420003402 49 210 0.0 0.0 0.00 0.00 0.00 21 1030.4
20190420002902 49 210 0.0 0.0 0.00 0.00 0.00 21 1030.4
20190420002403 50 210 0.0 1.0 0.00 0.00 0.00 21 1030.4
20190420001902 50 210 0.0 0.0 0.00 0.00 0.00 20 1030.4
20190420001402 50 210 0.0 1.0 0.00 0.00 0.00 21 1030.4
20190420000903 51 210 0.0 0.0 0.00 0.00 0.00 21 1030.4
20190420000403 51 210 0.0 0.0 0.00 0.00 0.00 21 1030.4
20190419235903 52 210 0.0 0.0 0.00 0.00 0.00 23 1030.4
20190419235403 52 210 0.0 0.0 0.00 0.00 0.00 23 1030.4
20190419234903 52 210 0.0 3.0 0.00 0.00 0.00 22 1030.4
20190419234403 52 219 1.0 2.0 0.00 0.00 0.00 21 1030.4
20190419233902 52 219 2.0 2.0 0.00 0.00 0.00 18 1030.4
20190419233403 52 219 0.0 1.0 0.00 0.00 0.00 16 1030.4
20190419232903 52 219 0.0 0.0 0.00 0.00 0.00 21 1030.4
20190419232403 52 219 0.0 2.0 0.00 0.00 0.00 19 1030.4
20190419231904 53 219 2.0 3.0 0.00 0.00 0.00 24 1030.4
20190419231403 54 196 0.0 2.0 0.00 0.00 0.00 19 1030.4
20190419230903 54 196 1.0 3.0 0.00 0.00 0.00 17 1030.3
20190419230403 55 219 0.0 2.0 0.00 0.00 0.00 15 1030.3
20190419225903 55 219 2.0 2.0 0.00 0.00 0.00 17 1030.3
20190419225403 54 256 1.0 3.0 0.00 0.00 0.00 17 1030.3
20190419224903 54 234 0.0 1.0 0.00 0.00 0.00 18 1030.3
20190419224403 54 234 1.0 2.0 0.00 0.00 0.00 18 1030.3
20190419223903 54 237 0.0 1.0 0.00 0.00 0.00 17 1030.3
20190419223403 54 237 1.0 3.0 0.00 0.00 0.00 20 1030.3
20190419222903 54 243 2.0 3.0 0.00 0.00 0.00 19 1030.3
20190419222403 55 213 2.0 3.0 0.00 0.00 0.00 18 1030.3
20190419221903 54 225 0.0 1.0 0.00 0.00 0.00 20 1030.3
20190419221403 54 225 1.0 3.0 0.00 0.00 0.00 20 1030.3
20190419220903 54 225 2.0 2.0 0.00 0.00 0.00 22 1030.3
20190419220403 54 225 0.0 2.0 0.00 0.00 0.00 22 1030.2
20190419215904 55 225 3.0 3.0 0.00 0.00 0.00 21 1030.1
20190419215403 56 219 2.0 7.0 0.00 0.00 0.00 17 1030.1
20190419214903 55 215 0.0 2.0 0.00 0.00 0.00 18 1030.1
20190419214403 55 227 2.0 3.0 0.00 0.00 0.00 17 1030.1
20190419213903 55 212 1.0 3.0 0.00 0.00 0.00 17 1030.1
20190419213403 54 182 2.0 5.0 0.00 0.00 0.00 17 1030.1
20190419212904 53 226 1.0 2.0 0.00 0.00 0.00 15 1030.1
20190419212403 53 226 1.0 3.0 0.00 0.00 0.00 22 1030.1
20190419211903 53 228 2.0 2.0 0.00 0.00 0.00 25 1030.2
20190419211403 54 211 2.0 5.0 0.00 0.00 0.00 24 1030.2
20190419210903 54 240 1.0 3.0 0.00 0.00 0.00 21 1030.1
20190419210404 54 240 1.0 3.0 0.00 0.00 0.00 26 1030.1
20190419205903 54 222 1.0 3.0 0.00 0.00 0.00 18 1030.2
20190419205403 55 258 5.0 7.0 0.00 0.00 0.00 22 1030.1
20190419204904 55 232 2.0 3.0 0.00 0.00 0.00 17 1030.1
20190419204403 55 226 2.0 3.0 0.00 0.00 0.00 19 1030.1
20190419203903 54 195 1.0 3.0 0.00 0.00 0.00 22 1030.2
20190419203403 54 240 3.0 3.0 0.00 0.00 0.00 23 1030.1
20190419202903 55 200 1.0 3.0 0.00 0.00 0.00 22 1030.2
20190419202403 55 200 3.0 3.0 0.00 0.00 0.00 20 1030.1
20190419201904 55 237 2.0 3.0 0.00 0.00 0.00 20 1030.1
20190419201403 55 243 2.0 3.0 0.00 0.00 0.00 21 1030.1
20190419200903 54 247 2.0 3.0 0.00 0.00 0.00 20 1030.1
20190419200403 55 220 2.0 5.0 0.00 0.00 0.00 19 1030.0
20190419195903 55 248 2.0 3.0 0.00 0.00 0.00 21 1030.0
20190419195403 55 231 2.0 3.0 0.00 0.00 0.00 21 1030.0
20190419194904 55 248 2.0 5.0 0.00 0.00 0.00 20 1030.0
20190419194403 55 213 2.0 5.0 0.00 0.00 0.00 21 1030.0
20190419193904 55 257 1.0 2.0 0.00 0.00 0.00 22 1030.0
20190419193403 55 207 2.0 3.0 0.00 0.00 0.00 20 1030.0
20190419192903 55 213 3.0 3.0 0.00 0.00 0.00 23 1030.0
20190419192403 55 233 2.0 7.0 0.00 0.00 0.00 24 1030.0
20190419191903 55 238 2.0 7.0 0.00 0.00 0.00 27 1030.0
20190419191403 56 208 2.0 3.0 0.00 0.00 0.00 23 1030.0
20190419190903 55 144 2.0 3.0 0.00 0.00 0.00 23 1030.0
20190419190404 55 146 1.0 3.0 0.00 0.00 0.00 26 1029.9
20190419185903 55 213 1.0 2.0 0.00 0.00 0.00 24 1029.9
20190419185404 55 202 2.0 5.0 0.00 0.00 0.00 21 1029.9
20190419184904 55 239 2.0 3.0 0.00 0.00 0.00 24 1029.9
20190419184403 54 203 2.0 6.0 0.00 0.00 0.00 24 1029.9
20190419183904 54 231 2.0 6.0 0.00 0.00 0.00 26 1029.9
20190419183403 54 223 2.0 2.0 0.00 0.00 0.00 26 1029.9
20190419182903 54 223 2.0 3.0 0.00 0.00 0.00 26 1029.9
20190419182403 53 221 2.0 3.0 0.00 0.00 0.00 24 1029.9
20190419181904 53 212 2.0 3.0 0.00 0.00 0.00 26 1029.9
20190419181404 53 243 2.0 3.0 0.00 0.01 0.00 28 1029.9
20190419180903 53 183 3.0 3.0 0.00 0.01 0.00 27 1029.9
20190419180404 53 200 2.0 5.0 0.00 0.01 0.00 28 1029.9
20190419175903 53 216 2.0 3.0 0.00 0.01 0.00 29 1029.9
20190419175404 53 207 1.0 7.0 0.00 0.01 0.00 28 1029.9
20190419174904 53 192 4.0 5.0 0.00 0.01 0.00 27 1029.9
20190419174403 53 213 2.0 3.0 0.00 0.01 0.00 29 1029.9
20190419173904 52 208 1.0 8.0 0.00 0.01 0.00 30 1029.9
20190419173404 52 196 2.0 3.0 0.00 0.01 0.00 31 1029.9
20190419172904 52 192 2.0 5.0 0.00 0.01 0.00 30 1029.9
20190419172403 51 216 2.0 3.0 0.00 0.01 0.00 31 1029.9
20190419171903 51 231 2.0 6.0 0.00 0.01 0.00 33 1029.9
20190419171404 51 213 2.0 3.0 0.00 0.01 0.00 32 1030.0
20190419170903 52 218 2.0 7.0 0.00 0.01 0.00 36 1029.9
20190419170403 52 229 1.0 3.0 0.00 0.01 0.00 30 1029.8
20190419165904 51 200 2.0 3.0 0.00 0.01 0.00 34 1029.8
20190419165403 51 186 2.0 3.0 0.00 0.01 0.00 32 1029.8
20190419164904 51 170 1.0 6.0 0.00 0.01 0.00 34 1029.8
20190419164404 51 187 2.0 3.0 0.00 0.01 0.00 34 1029.8
20190419163904 51 211 3.0 3.0 0.00 0.01 0.00 35 1029.8
20190419163403 50 192 1.0 3.0 0.00 0.01 0.00 34 1029.8
20190419162903 49 175 1.0 3.0 0.00 0.01 0.00 33 1029.8
20190419162404 49 228 3.0 3.0 0.00 0.01 0.00 36 1029.8
20190419161903 49 216 1.0 3.0 0.00 0.01 0.00 36 1029.8
20190419161403 49 231 2.0 5.0 0.00 0.01 0.00 39 1029.8
20190419160904 49 257 3.0 3.0 0.00 0.01 0.00 38 1029.8
20190419160403 49 239 3.0 3.0 0.00 0.01 0.00 39 1029.8
20190419155903 48 197 1.0 2.0 0.00 0.01 0.00 38 1029.7
20190419155404 48 209 1.0 3.0 0.00 0.01 0.00 38 1029.7
20190419154903 48 223 2.0 3.0 0.00 0.01 0.00 39 1029.7
20190419154403 48 222 2.0 5.0 0.00 0.01 0.00 38 1029.7
20190419153904 48 236 2.0 3.0 0.00 0.01 0.00 41 1029.7
20190419153403 48 218 2.0 3.0 0.00 0.01 0.00 40 1029.7
20190419152903 48 196 2.0 3.0 0.00 0.01 0.00 41 1029.7
20190419152404 48 194 2.0 2.0 0.00 0.01 0.00 43 1029.7
20190419151904 48 249 3.0 3.0 0.00 0.01 0.00 43 1029.7
20190419151404 47 195 1.0 3.0 0.00 0.01 0.00 44 1029.7
20190419150904 47 215 3.0 5.0 0.00 0.01 0.00 43 1029.7
20190419150403 47 197 3.0 3.0 0.00 0.01 0.00 44 1029.7
20190419145903 47 237 3.0 7.0 0.00 0.01 0.00 46 1029.7
20190419145404 46 167 2.0 3.0 0.00 0.01 0.00 47 1029.7
20190419144904 46 197 1.0 3.0 0.00 0.01 0.00 52 1029.7
20190419144404 46 198 1.0 5.0 0.00 0.01 0.00 57 1029.7
20190419143904 46 198 2.0 5.0 0.00 0.01 0.00 59 1029.7
20190419143403 45 163 2.0 3.0 0.00 0.01 0.00 61 1029.8
20190419142903 45 205 2.0 3.0 0.00 0.01 0.00 62 1029.8
20190419142404 45 180 4.0 7.0 0.00 0.01 0.00 64 1029.8
20190419141903 45 193 2.0 3.0 0.00 0.01 0.00 66 1029.8
20190419141404 44 190 1.0 3.0 0.00 0.01 0.00 69 1029.8
20190419140904 44 212 1.0 5.0 0.00 0.01 0.00 71 1029.7
20190419140404 44 183 1.0 2.0 0.00 0.01 0.00 72 1029.7
20190419135904 43 296 1.0 2.0 0.00 0.01 0.00 73 1029.6
20190419135403 43 189 2.0 5.0 0.00 0.01 0.00 72 1029.6
20190419134903 43 177 1.0 3.0 0.00 0.01 0.00 73 1029.6
20190419134404 42 196 2.0 3.0 0.00 0.01 0.00 74 1029.6
20190419133904 42 197 0.0 3.0 0.00 0.01 0.00 75 1029.6
20190419133403 41 206 2.0 3.0 0.00 0.01 0.00 76 1029.6
20190419132903 41 225 3.0 3.0 0.00 0.01 0.00 76 1029.6
20190419132404 41 210 0.0 3.0 0.00 0.01 0.00 78 1029.6
20190419131904 40 229 1.0 2.0 0.00 0.01 0.00 79 1029.6
20190419131404 39 228 0.0 2.0 0.00 0.01 0.00 81 1029.6
20190419130904 39 228 2.0 3.0 0.00 0.01 0.00 81 1029.6
20190419130404 38 192 1.0 2.0 0.00 0.01 0.00 82 1029.6
20190419125903 38 202 1.0 2.0 0.00 0.01 0.00 82 1029.6
20190419125404 38 206 1.0 2.0 0.00 0.01 0.00 83 1029.6
20190419124904 37 215 2.0 3.0 0.00 0.01 0.00 83 1029.6
20190419124404 37 172 1.0 2.0 0.00 0.01 0.00 84 1029.6
20190419123904 37 178 0.0 2.0 0.00 0.01 0.00 85 1029.6
20190419123404 36 191 2.0 2.0 0.00 0.01 0.00 86 1029.6
20190419122904 36 199 1.0 3.0 0.00 0.01 0.00 86 1029.6
20190419122404 35 153 1.0 1.0 0.00 0.01 0.00 88 1029.6
20190419121903 34 134 0.0 2.0 0.00 0.01 0.00 88 1029.6
20190419121404 34 134 1.0 2.0 0.00 0.01 0.00 89 1029.6
20190419120905 33 134 0.0 1.0 0.00 0.01 0.00 90 1029.6
20190419120404 33 134 1.0 3.0 0.00 0.01 0.00 90 1029.6
20190419115904 32 144 1.0 2.0 0.00 0.01 0.00 90 1029.6
20190419115404 32 148 0.0 1.0 0.00 0.01 0.00 91 1029.6
20190419114904 32 182 1.0 1.0 0.00 0.01 0.00 91 1029.6
20190419114403 31 182 0.0 1.0 0.00 0.01 0.00 91 1029.6
20190419113904 31 182 0.0 2.0 0.00 0.01 0.00 91 1029.6
20190419113404 31 182 0.0 5.0 0.00 0.01 0.00 91 1029.6
20190419112903 31 182 1.0 3.0 0.00 0.01 0.00 92 1029.6
20190419112404 31 215 0.0 1.0 0.00 0.01 0.00 91 1029.6
20190419111904 31 215 0.0 1.0 0.00 0.01 0.00 92 1029.6
20190419111404 31 205 1.0 2.0 0.00 0.01 0.00 92 1029.6
20190419110904 31 205 0.0 1.0 0.00 0.01 0.00 91 1029.6
20190419110404 31 205 0.0 0.0 0.00 0.01 0.00 91 1029.6
20190419105904 31 205 0.0 1.0 0.00 0.01 0.00 91 1029.6
20190419105404 31 205 0.0 1.0 0.00 0.01 0.00 91 1029.6
20190419104903 31 205 1.0 1.0 0.00 0.01 0.00 91 1029.6
20190419104403 31 205 0.0 0.0 0.00 0.01 0.00 91 1029.6
20190419103904 31 205 0.0 1.0 0.00 0.01 0.00 91 1029.6
20190419103404 31 205 0.0 2.0 0.00 0.01 0.00 91 1029.6
20190419102904 31 205 0.0 1.0 0.00 0.01 0.00 91 1029.6
20190419102404 32 205 1.0 1.0 0.00 0.01 0.00 91 1029.6
20190419101904 32 205 0.0 0.0 0.00 0.01 0.00 90 1029.6
20190419101404 32 205 0.0 0.0 0.00 0.01 0.00 91 1029.6
20190419100904 32 205 0.0 0.0 0.00 0.01 0.00 91 1029.6
20190419100404 32 205 0.0 1.0 0.00 0.01 0.00 91 1029.6
20190419095904 32 205 1.0 2.0 0.00 0.01 0.00 91 1029.6
20190419095404 32 205 0.0 0.0 0.00 0.01 0.00 91 1029.6
20190419094904 32 205 0.0 1.0 0.00 0.01 0.00 91 1029.6
20190419094404 32 205 0.0 1.0 0.00 0.01 0.00 91 1029.6
20190419093904 32 205 0.0 1.0 0.00 0.01 0.00 91 1029.6
20190419093404 32 205 0.0 2.0 0.00 0.01 0.00 91 1029.6
20190419092904 32 205 0.0 2.0 0.00 0.01 0.00 91 1029.6
20190419092404 32 205 1.0 1.0 0.00 0.01 0.00 91 1029.6
20190419091904 32 205 1.0 2.0 0.00 0.01 0.00 91 1029.6
20190419091404 32 205 0.0 2.0 0.00 0.01 0.00 91 1029.6
20190419090904 32 205 1.0 1.0 0.00 0.01 0.00 91 1029.6
20190419090404 32 205 1.0 1.0 0.00 0.01 0.00 91 1029.6
20190419085904 32 205 1.0 2.0 0.00 0.01 0.00 91 1029.6
20190419085404 32 205 1.0 2.0 0.00 0.01 0.00 90 1029.6
20190419084904 32 205 1.0 2.0 0.00 0.01 0.00 91 1029.6
20190419084404 33 207 0.0 2.0 0.00 0.01 0.00 90 1029.6
20190419083404 33 207 0.0 0.0 0.00 0.01 0.00 89 1029.6
20190419082905 33 207 0.0 1.0 0.00 0.01 0.00 89 1029.6
20190419082404 34 207 1.0 3.0 0.00 0.01 0.00 89 1029.6
20190419081904 34 175 0.0 0.0 0.00 0.01 0.00 88 1029.6
20190419081404 34 175 1.0 3.0 0.00 0.01 0.00 88 1029.6
20190419080904 34 197 1.0 2.0 0.00 0.01 0.00 88 1029.6
20190419080404 34 197 0.0 1.0 0.00 0.01 0.00 88 1029.6
20190419075904 35 197 1.0 2.0 0.00 0.01 0.00 88 1029.6
20190419075405 35 198 1.0 1.0 0.00 0.01 0.00 88 1029.6
20190419074904 34 207 1.0 2.0 0.00 0.01 0.00 88 1029.6
20190419074404 35 213 1.0 3.0 0.00 0.01 0.00 88 1029.6
20190419073904 34 194 1.0 2.0 0.00 0.01 0.00 89 1029.6
20190419073404 34 190 1.0 2.0 0.00 0.01 0.00 89 1029.6
20190419072904 34 188 1.0 1.0 0.00 0.01 0.00 89 1029.6
20190419072404 34 182 1.0 1.0 0.00 0.01 0.00 89 1029.6
20190419071904 34 182 1.0 2.0 0.00 0.01 0.00 90 1029.6
20190419071404 34 192 1.0 3.0 0.00 0.01 0.00 90 1029.6
20190419070904 34 163 1.0 2.0 0.00 0.01 0.00 90 1029.6
20190419070404 34 192 0.0 2.0 0.00 0.01 0.00 90 1029.6
20190419065904 34 181 0.0 2.0 0.00 0.01 0.00 90 1029.6
20190419065404 34 175 0.0 1.0 0.00 0.01 0.00 90 1029.6
20190419064905 34 175 0.0 1.0 0.00 0.01 0.00 90 1029.6
20190419064404 34 175 0.0 1.0 0.00 0.01 0.00 90 1029.6
20190419063904 34 171 1.0 2.0 0.00 0.01 0.00 90 1029.6
20190419063405 34 179 1.0 3.0 0.00 0.01 0.00 90 1029.6
20190419062905 35 162 0.0 1.0 0.00 0.01 0.00 90 1029.6
20190419062404 35 177 1.0 2.0 0.00 0.01 0.00 90 1029.6
20190419061904 35 192 0.0 1.0 0.00 0.01 0.00 90 1029.6
20190419061406 35 192 0.0 1.0 0.00 0.01 0.00 90 1029.6
20190419060904 35 190 1.0 2.0 0.00 0.01 0.00 90 1029.6
20190419060405 35 165 1.0 2.0 0.00 0.01 0.00 90 1029.6
20190419055904 35 165 1.0 3.0 0.00 0.01 0.00 90 1029.6
20190419055404 35 169 1.0 2.0 0.00 0.01 0.00 90 1029.6
20190419054905 35 167 1.0 3.0 0.00 0.01 0.00 90 1029.6
20190419054405 35 167 0.0 3.0 0.00 0.01 0.00 90 1029.6
20190419053904 35 177 0.0 1.0 0.00 0.01 0.00 90 1029.6
20190419053404 35 177 0.0 2.0 0.00 0.01 0.00 90 1029.6
20190419052904 35 177 1.0 2.0 0.00 0.01 0.00 90 1029.6
20190419052404 36 190 1.0 1.0 0.00 0.01 0.00 90 1029.6
20190419051905 36 188 1.0 1.0 0.00 0.01 0.00 90 1029.6
20190419051404 36 196 1.0 1.0 0.00 0.01 0.00 90 1029.6
20190419050904 36 143 2.0 2.0 0.00 0.01 0.01 90 1029.6
20190419050404 36 117 1.0 2.0 0.00 0.01 0.01 90 1029.8
20190419045904 36 117 1.0 2.0 0.00 0.01 0.01 90 1029.8
20190419045405 36 198 1.0 3.0 0.00 0.01 0.01 90 1029.8
20190419044905 36 130 1.0 2.0 0.00 0.01 0.01 90 1029.8
20190419044405 36 130 1.0 3.0 0.00 0.01 0.01 90 1029.8
20190419043904 36 215 1.0 3.0 0.00 0.01 0.01 90 1029.8
20190419043404 36 186 0.0 1.0 0.00 0.01 0.01 90 1029.8
20190419042905 37 186 1.0 3.0 0.00 0.01 0.01 90 1029.8
20190419042404 37 219 0.0 2.0 0.00 0.01 0.01 90 1029.8
20190419041904 37 190 2.0 3.0 0.00 0.02 0.01 89 1029.8
20190419041404 37 172 1.0 2.0 0.00 0.02 0.01 89 1029.8
20190419040904 37 196 1.0 3.0 0.00 0.02 0.01 89 1029.8
20190419040405 37 186 1.0 3.0 0.00 0.02 0.01 89 1029.8
20190419035905 37 174 2.0 3.0 0.00 0.03 0.01 89 1029.8
20190419035404 37 186 2.0 5.0 0.00 0.03 0.01 89 1029.8
20190419034904 37 150 1.0 2.0 0.00 0.04 0.01 89 1029.8
20190419034405 37 134 2.0 6.0 0.00 0.05 0.01 89 1029.8
20190419033905 37 182 1.0 2.0 0.00 0.06 0.01 89 1029.7
20190419033404 37 182 1.0 2.0 0.00 0.07 0.01 89 1029.7
20190419032905 37 187 1.0 3.0 0.00 0.07 0.01 90 1029.7
20190419032404 37 200 1.0 3.0 0.00 0.08 0.01 90 1029.7
20190419031905 37 177 2.0 5.0 0.00 0.08 0.01 90 1029.7
20190419031404 37 191 1.0 5.0 0.00 0.08 0.01 90 1029.7
20190419030908 38 203 1.0 2.0 0.00 0.08 0.01 90 1029.7
20190419030405 38 171 1.0 13.0 0.00 0.08 0.01 90 1029.7
20190419025905 37 167 3.0 3.0 0.00 0.08 0.01 90 1029.7
20190419025404 37 177 1.0 3.0 0.00 0.09 0.01 91 1029.7
20190419024904 38 232 1.0 3.0 0.00 0.09 0.01 91 1029.7
20190419024404 37 174 1.0 2.0 0.00 0.11 0.01 91 1029.7
20190419023904 37 225 2.0 3.0 0.00 0.12 0.01 91 1029.7
20190419023404 37 171 2.0 2.0 0.00 0.13 0.01 91 1029.7
20190419022904 37 213 1.0 3.0 0.00 0.14 0.01 92 1029.7